sensor_id;sensor_type;location;lat;lon;timestamp;temperature;humidity
22878;DHT22;11606;45.404;12.148;2022-07-23T02:23:23;24.70;99.90
22878;DHT22;11606;45.404;12.148;2022-07-23T02:25:48;25.90;99.90
22878;DHT22;11606;45.404;12.148;2022-07-23T02:28:14;25.80;99.90
22878;DHT22;11606;45.404;12.148;2022-07-23T02:30:40;25.80;99.90
22878;DHT22;11606;45.404;12.148;2022-07-23T02:33:06;25.80;99.90
22878;DHT22;11606;45.404;12.148;2022-07-23T02:35:31;25.70;99.90
22878;DHT22;11606;45.404;12.148;2022-07-23T02:37:57;25.70;99.90
22878;DHT22;11606;45.404;12.148;2022-07-23T02:40:23;25.80;99.90
22878;DHT22;11606;45.404;12.148;2022-07-23T02:42:48;25.70;99.90
22878;DHT22;11606;45.404;12.148;2022-07-23T02:45:14;25.60;99.90
22878;DHT22;11606;45.404;12.148;2022-07-23T02:47:40;25.50;99.90
22878;DHT22;11606;45.404;12.148;2022-07-23T02:50:06;25.40;99.90
22878;DHT22;11606;45.404;12.148;2022-07-23T02:52:32;25.20;99.90
22878;DHT22;11606;45.404;12.148;2022-07-23T02:54:58;25.20;99.90
22878;DHT22;11606;45.404;12.148;2022-07-23T02:57:24;25.20;99.90
22878;DHT22;11606;45.404;12.148;2022-07-23T02:59:50;25.10;99.90
22878;DHT22;11606;45.404;12.148;2022-07-23T03:02:15;25.10;99.90
22878;DHT22;11606;45.404;12.148;2022-07-23T03:04:41;25.20;99.90
22878;DHT22;11606;45.404;12.148;2022-07-23T03:07:08;25.30;99.90
22878;DHT22;11606;45.404;12.148;2022-07-23T03:09:34;25.40;99.90
22878;DHT22;11606;45.404;12.148;2022-07-23T03:11:59;25.50;99.90
22878;DHT22;11606;45.404;12.148;2022-07-23T03:14:25;25.50;99.90
22878;DHT22;11606;45.404;12.148;2022-07-23T03:16:51;25.50;99.90
22878;DHT22;11606;45.404;12.148;2022-07-23T03:19:17;25.50;99.90
22878;DHT22;11606;45.404;12.148;2022-07-23T03:21:43;25.60;99.90
22878;DHT22;11606;45.404;12.148;2022-07-23T03:24:09;25.60;99.90
22878;DHT22;11606;45.404;12.148;2022-07-23T03:26:35;25.60;99.90
22878;DHT22;11606;45.404;12.148;2022-07-23T03:29:01;25.50;99.90
22878;DHT22;11606;45.404;12.148;2022-07-23T03:31:29;25.50;99.90
22878;DHT22;11606;45.404;12.148;2022-07-23T03:33:56;25.60;99.90
22878;DHT22;11606;45.404;12.148;2022-07-23T03:36:22;25.60;99.90
22878;DHT22;11606;45.404;12.148;2022-07-23T03:38:48;25.60;99.90
22878;DHT22;11606;45.404;12.148;2022-07-23T03:41:14;25.50;99.90
22878;DHT22;11606;45.404;12.148;2022-07-23T03:43:39;25.50;99.90
22878;DHT22;11606;45.404;12.148;2022-07-23T03:46:05;25.50;99.90
22878;DHT22;11606;45.404;12.148;2022-07-23T03:48:31;25.30;99.90
22878;DHT22;11606;45.404;12.148;2022-07-23T03:50:57;25.10;99.90
22878;DHT22;11606;45.404;12.148;2022-07-23T03:53:22;24.90;99.90
22878;DHT22;11606;45.404;12.148;2022-07-23T03:55:48;24.70;99.90
22878;DHT22;11606;45.404;12.148;2022-07-23T03:58:14;24.70;99.90
22878;DHT22;11606;45.404;12.148;2022-07-23T04:00:40;24.70;99.90
22878;DHT22;11606;45.404;12.148;2022-07-23T04:03:05;24.80;99.90
22878;DHT22;11606;45.404;12.148;2022-07-23T04:05:31;24.80;99.90
22878;DHT22;11606;45.404;12.148;2022-07-23T04:07:57;24.80;99.90
22878;DHT22;11606;45.404;12.148;2022-07-23T04:10:23;24.60;99.90
22878;DHT22;11606;45.404;12.148;2022-07-23T04:12:49;24.60;99.90
22878;DHT22;11606;45.404;12.148;2022-07-23T04:15:14;24.40;99.90
22878;DHT22;11606;45.404;12.148;2022-07-23T04:17:40;24.40;99.90
22878;DHT22;11606;45.404;12.148;2022-07-23T04:20:07;24.40;99.90
22878;DHT22;11606;45.404;12.148;2022-07-23T04:22:33;24.30;99.90
22878;DHT22;11606;45.404;12.148;2022-07-23T04:24:59;24.40;99.90
22878;DHT22;11606;45.404;12.148;2022-07-23T04:27:24;24.60;99.90
22878;DHT22;11606;45.404;12.148;2022-07-23T04:29:50;24.80;99.90
22878;DHT22;11606;45.404;12.148;2022-07-23T04:32:16;24.90;99.90
22878;DHT22;11606;45.404;12.148;2022-07-23T04:57:36;25.10;99.90
22878;DHT22;11606;45.404;12.148;2022-07-23T05:00:04;26.30;99.90
22878;DHT22;11606;45.404;12.148;2022-07-23T05:02:30;26.30;99.90
22878;DHT22;11606;45.404;12.148;2022-07-23T05:04:56;26.40;99.90
22878;DHT22;11606;45.404;12.148;2022-07-23T05:07:21;26.40;99.90
22878;DHT22;11606;45.404;12.148;2022-07-23T05:09:47;26.40;99.90
22878;DHT22;11606;45.404;12.148;2022-07-23T05:12:13;26.50;99.90
22878;DHT22;11606;45.404;12.148;2022-07-23T05:14:38;26.50;99.90
22878;DHT22;11606;45.404;12.148;2022-07-23T05:17:04;26.70;99.90
22878;DHT22;11606;45.404;12.148;2022-07-23T05:19:30;26.70;99.90
22878;DHT22;11606;45.404;12.148;2022-07-23T05:21:56;26.90;99.90
22878;DHT22;11606;45.404;12.148;2022-07-23T05:37:22;27.10;99.90
22878;DHT22;11606;45.404;12.148;2022-07-23T05:39:47;28.80;99.90
22878;DHT22;11606;45.404;12.148;2022-07-23T05:42:13;28.70;99.90
22878;DHT22;11606;45.404;12.148;2022-07-23T05:44:39;28.80;99.90
22878;DHT22;11606;45.404;12.148;2022-07-23T05:47:04;28.80;99.90
22878;DHT22;11606;45.404;12.148;2022-07-23T05:49:30;28.80;99.90
22878;DHT22;11606;45.404;12.148;2022-07-23T05:51:56;28.80;99.90
22878;DHT22;11606;45.404;12.148;2022-07-23T05:54:22;28.90;99.90
22878;DHT22;11606;45.404;12.148;2022-07-23T05:56:47;29.00;99.90
22878;DHT22;11606;45.404;12.148;2022-07-23T05:59:13;29.10;99.90
22878;DHT22;11606;45.404;12.148;2022-07-23T06:01:40;29.20;99.90
22878;DHT22;11606;45.404;12.148;2022-07-23T06:20:58;29.70;99.90
22878;DHT22;11606;45.404;12.148;2022-07-23T06:23:24;31.40;99.90
22878;DHT22;11606;45.404;12.148;2022-07-23T06:25:49;31.30;99.90
22878;DHT22;11606;45.404;12.148;2022-07-23T06:28:15;31.30;99.90
22878;DHT22;11606;45.404;12.148;2022-07-23T06:30:41;31.40;99.90
22878;DHT22;11606;45.404;12.148;2022-07-23T06:33:07;31.50;99.90
22878;DHT22;11606;45.404;12.148;2022-07-23T06:35:33;31.60;99.90
22878;DHT22;11606;45.404;12.148;2022-07-23T09:35:14;35.60;79.40
22878;DHT22;11606;45.404;12.148;2022-07-23T09:37:40;37.30;73.60
22878;DHT22;11606;45.404;12.148;2022-07-23T09:40:10;37.30;74.20
22878;DHT22;11606;45.404;12.148;2022-07-23T09:42:55;37.30;73.00
22878;DHT22;11606;45.404;12.148;2022-07-23T09:45:20;37.50;73.60
22878;DHT22;11606;45.404;12.148;2022-07-23T09:47:46;37.50;74.70
22878;DHT22;11606;45.404;12.148;2022-07-23T09:50:12;37.60;74.00
22878;DHT22;11606;45.404;12.148;2022-07-23T09:52:45;37.70;72.20
22878;DHT22;11606;45.404;12.148;2022-07-23T09:55:15;37.70;71.50
22878;DHT22;11606;45.404;12.148;2022-07-23T09:57:42;37.50;69.00
22878;DHT22;11606;45.404;12.148;2022-07-23T10:00:12;37.70;70.30
22878;DHT22;11606;45.404;12.148;2022-07-23T10:02:39;37.90;67.60
22878;DHT22;11606;45.404;12.148;2022-07-23T10:05:06;38.10;68.40
22878;DHT22;11606;45.404;12.148;2022-07-23T10:07:36;38.10;67.70
22878;DHT22;11606;45.404;12.148;2022-07-23T10:10:04;38.30;69.90
22878;DHT22;11606;45.404;12.148;2022-07-23T10:12:30;38.50;70.40
22878;DHT22;11606;45.404;12.148;2022-07-23T10:14:59;38.60;69.20
22878;DHT22;11606;45.404;12.148;2022-07-23T10:17:28;38.70;70.50
22878;DHT22;11606;45.404;12.148;2022-07-23T10:19:53;38.70;69.40
22878;DHT22;11606;45.404;12.148;2022-07-23T10:22:22;38.70;68.80
22878;DHT22;11606;45.404;12.148;2022-07-23T10:28:00;38.80;68.30
22878;DHT22;11606;45.404;12.148;2022-07-23T10:30:54;38.90;67.10
22878;DHT22;11606;45.404;12.148;2022-07-23T10:42:14;39.40;66.30
22878;DHT22;11606;45.404;12.148;2022-07-23T10:44:48;39.30;65.60
22878;DHT22;11606;45.404;12.148;2022-07-23T10:47:28;39.50;63.80
22878;DHT22;11606;45.404;12.148;2022-07-23T10:50:29;39.40;65.30
22878;DHT22;11606;45.404;12.148;2022-07-23T10:57:58;39.20;65.60
22878;DHT22;11606;45.404;12.148;2022-07-23T11:00:35;38.90;66.30
22878;DHT22;11606;45.404;12.148;2022-07-23T11:03:03;38.30;67.20
22878;DHT22;11606;45.404;12.148;2022-07-23T11:05:43;37.90;67.90
22878;DHT22;11606;45.404;12.148;2022-07-23T11:08:18;37.60;68.20
22878;DHT22;11606;45.404;12.148;2022-07-23T11:10:52;37.30;67.50
22878;DHT22;11606;45.404;12.148;2022-07-23T11:18:55;36.90;69.50
22878;DHT22;11606;45.404;12.148;2022-07-23T11:24:12;36.50;70.50
22878;DHT22;11606;45.404;12.148;2022-07-23T11:37:04;35.70;72.60
22878;DHT22;11606;45.404;12.148;2022-07-23T11:39:32;35.40;69.70
22878;DHT22;11606;45.404;12.148;2022-07-23T11:41:59;35.30;70.80
22878;DHT22;11606;45.404;12.148;2022-07-23T11:44:27;35.20;71.20
22878;DHT22;11606;45.404;12.148;2022-07-23T11:46:58;35.30;72.90
22878;DHT22;11606;45.404;12.148;2022-07-23T11:49:24;35.20;76.10
22878;DHT22;11606;45.404;12.148;2022-07-23T11:52:10;35.00;78.20
22878;DHT22;11606;45.404;12.148;2022-07-23T11:54:47;34.80;80.90
22878;DHT22;11606;45.404;12.148;2022-07-23T11:57:14;34.70;81.20
22878;DHT22;11606;45.404;12.148;2022-07-23T11:59:40;34.70;82.50
22878;DHT22;11606;45.404;12.148;2022-07-23T12:02:08;34.70;82.60
22878;DHT22;11606;45.404;12.148;2022-07-23T12:04:41;34.50;86.80
22878;DHT22;11606;45.404;12.148;2022-07-23T12:07:28;34.50;85.30
22878;DHT22;11606;45.404;12.148;2022-07-23T12:09:56;34.50;87.20
22878;DHT22;11606;45.404;12.148;2022-07-23T12:12:23;34.40;86.50
22878;DHT22;11606;45.404;12.148;2022-07-23T12:14:57;34.40;86.00
22878;DHT22;11606;45.404;12.148;2022-07-23T12:17:34;34.30;86.40
22878;DHT22;11606;45.404;12.148;2022-07-23T12:20:03;34.10;87.50
22878;DHT22;11606;45.404;12.148;2022-07-23T12:22:42;34.00;87.20
22878;DHT22;11606;45.404;12.148;2022-07-23T12:25:15;34.00;89.10
22878;DHT22;11606;45.404;12.148;2022-07-23T12:27:42;34.00;88.90
22878;DHT22;11606;45.404;12.148;2022-07-23T12:33:05;33.80;89.20
22878;DHT22;11606;45.404;12.148;2022-07-23T12:35:43;33.80;90.00
22878;DHT22;11606;45.404;12.148;2022-07-23T12:38:12;33.80;90.40
22878;DHT22;11606;45.404;12.148;2022-07-23T12:43:33;33.70;90.10
22878;DHT22;11606;45.404;12.148;2022-07-23T12:46:06;33.60;90.30
22878;DHT22;11606;45.404;12.148;2022-07-23T12:48:38;33.60;90.00
22878;DHT22;11606;45.404;12.148;2022-07-23T12:51:17;33.50;90.10
22878;DHT22;11606;45.404;12.148;2022-07-23T12:53:46;33.50;90.40
22878;DHT22;11606;45.404;12.148;2022-07-23T12:58:50;33.50;91.30
22878;DHT22;11606;45.404;12.148;2022-07-23T13:06:37;33.70;90.80
22878;DHT22;11606;45.404;12.148;2022-07-23T13:09:06;33.70;90.20
22878;DHT22;11606;45.404;12.148;2022-07-23T13:11:32;33.50;89.00
22878;DHT22;11606;45.404;12.148;2022-07-23T13:13:59;33.40;90.60
22878;DHT22;11606;45.404;12.148;2022-07-23T13:16:27;33.50;91.10
22878;DHT22;11606;45.404;12.148;2022-07-23T13:18:53;33.50;90.50
22878;DHT22;11606;45.404;12.148;2022-07-23T13:21:18;33.50;91.20
22878;DHT22;11606;45.404;12.148;2022-07-23T13:23:44;33.60;91.30
22878;DHT22;11606;45.404;12.148;2022-07-23T13:26:10;33.60;90.80
22878;DHT22;11606;45.404;12.148;2022-07-23T13:28:36;33.50;90.20
22878;DHT22;11606;45.404;12.148;2022-07-23T13:31:02;33.50;90.20
22878;DHT22;11606;45.404;12.148;2022-07-23T13:33:29;33.50;90.70
22878;DHT22;11606;45.404;12.148;2022-07-23T13:35:55;33.50;90.00
22878;DHT22;11606;45.404;12.148;2022-07-23T13:38:21;33.60;90.40
22878;DHT22;11606;45.404;12.148;2022-07-23T13:40:49;33.70;87.90
22878;DHT22;11606;45.404;12.148;2022-07-23T13:43:17;33.70;87.20
22878;DHT22;11606;45.404;12.148;2022-07-23T13:45:44;33.70;88.00
22878;DHT22;11606;45.404;12.148;2022-07-23T13:48:12;33.60;86.10
22878;DHT22;11606;45.404;12.148;2022-07-23T13:50:38;33.50;87.90
22878;DHT22;11606;45.404;12.148;2022-07-23T13:53:08;33.50;86.10
22878;DHT22;11606;45.404;12.148;2022-07-23T13:55:35;33.40;85.90
22878;DHT22;11606;45.404;12.148;2022-07-23T13:58:03;33.40;85.00
22878;DHT22;11606;45.404;12.148;2022-07-23T14:00:31;33.60;84.50
22878;DHT22;11606;45.404;12.148;2022-07-23T14:02:58;33.70;85.60
22878;DHT22;11606;45.404;12.148;2022-07-23T14:05:24;33.70;85.10
22878;DHT22;11606;45.404;12.148;2022-07-23T14:07:50;33.70;86.10
22878;DHT22;11606;45.404;12.148;2022-07-23T14:10:18;33.60;84.10
22878;DHT22;11606;45.404;12.148;2022-07-23T14:12:46;33.50;84.00
22878;DHT22;11606;45.404;12.148;2022-07-23T14:15:13;33.50;83.70
22878;DHT22;11606;45.404;12.148;2022-07-23T14:17:41;33.50;84.00
22878;DHT22;11606;45.404;12.148;2022-07-23T14:20:08;33.50;84.80
22878;DHT22;11606;45.404;12.148;2022-07-23T14:22:34;33.30;85.80
22878;DHT22;11606;45.404;12.148;2022-07-23T14:25:00;33.20;84.20
22878;DHT22;11606;45.404;12.148;2022-07-23T14:27:27;33.20;83.60
22878;DHT22;11606;45.404;12.148;2022-07-23T14:29:54;33.40;85.10
22878;DHT22;11606;45.404;12.148;2022-07-23T14:32:21;33.40;86.30
22878;DHT22;11606;45.404;12.148;2022-07-23T14:34:47;33.50;84.00
22878;DHT22;11606;45.404;12.148;2022-07-23T14:37:13;33.50;84.20
22878;DHT22;11606;45.404;12.148;2022-07-23T14:39:40;33.30;82.00
22878;DHT22;11606;45.404;12.148;2022-07-23T14:42:06;33.30;80.80
22878;DHT22;11606;45.404;12.148;2022-07-23T14:44:33;33.30;82.20
22878;DHT22;11606;45.404;12.148;2022-07-23T14:47:00;33.30;82.00
22878;DHT22;11606;45.404;12.148;2022-07-23T14:49:27;33.30;81.30
22878;DHT22;11606;45.404;12.148;2022-07-23T14:51:53;33.20;82.70
22878;DHT22;11606;45.404;12.148;2022-07-23T14:54:19;33.20;80.50
22878;DHT22;11606;45.404;12.148;2022-07-23T14:56:46;33.20;82.90
22878;DHT22;11606;45.404;12.148;2022-07-23T14:59:12;33.20;83.90
22878;DHT22;11606;45.404;12.148;2022-07-23T15:01:39;33.30;83.70
22878;DHT22;11606;45.404;12.148;2022-07-23T15:04:06;33.30;81.00
22878;DHT22;11606;45.404;12.148;2022-07-23T15:06:32;33.20;78.50
22878;DHT22;11606;45.404;12.148;2022-07-23T15:08:58;33.20;75.40
22878;DHT22;11606;45.404;12.148;2022-07-23T15:11:28;33.20;77.90
22878;DHT22;11606;45.404;12.148;2022-07-23T15:13:58;33.20;83.80
22878;DHT22;11606;45.404;12.148;2022-07-23T15:16:24;33.10;82.00
22878;DHT22;11606;45.404;12.148;2022-07-23T15:18:49;33.10;83.30
22878;DHT22;11606;45.404;12.148;2022-07-23T15:21:15;33.20;85.30
22878;DHT22;11606;45.404;12.148;2022-07-23T15:23:41;33.10;84.30
22878;DHT22;11606;45.404;12.148;2022-07-23T15:26:08;33.10;84.80
22878;DHT22;11606;45.404;12.148;2022-07-23T15:28:34;33.20;86.60
22878;DHT22;11606;45.404;12.148;2022-07-23T15:31:01;33.20;88.20
22878;DHT22;11606;45.404;12.148;2022-07-23T15:36:02;33.20;87.70
22878;DHT22;11606;45.404;12.148;2022-07-23T15:38:28;33.10;87.20
22878;DHT22;11606;45.404;12.148;2022-07-23T15:40:54;33.00;85.20
22878;DHT22;11606;45.404;12.148;2022-07-23T15:43:25;33.00;84.80
22878;DHT22;11606;45.404;12.148;2022-07-23T15:45:52;33.00;86.50
22878;DHT22;11606;45.404;12.148;2022-07-23T15:48:19;33.00;83.30
22878;DHT22;11606;45.404;12.148;2022-07-23T15:50:46;32.90;82.80
22878;DHT22;11606;45.404;12.148;2022-07-23T15:53:12;33.00;83.00
22878;DHT22;11606;45.404;12.148;2022-07-23T15:55:39;33.00;85.10
22878;DHT22;11606;45.404;12.148;2022-07-23T15:58:06;32.90;84.20
22878;DHT22;11606;45.404;12.148;2022-07-23T16:00:33;32.90;83.40
22878;DHT22;11606;45.404;12.148;2022-07-23T16:02:59;32.90;83.00
22878;DHT22;11606;45.404;12.148;2022-07-23T16:05:25;33.00;82.80
22878;DHT22;11606;45.404;12.148;2022-07-23T16:07:59;33.00;78.60
22878;DHT22;11606;45.404;12.148;2022-07-23T16:10:25;33.10;78.70
22878;DHT22;11606;45.404;12.148;2022-07-23T16:12:51;33.10;79.90
22878;DHT22;11606;45.404;12.148;2022-07-23T16:15:17;33.10;80.00
22878;DHT22;11606;45.404;12.148;2022-07-23T16:17:43;33.20;79.60
22878;DHT22;11606;45.404;12.148;2022-07-23T16:20:10;33.20;78.50
22878;DHT22;11606;45.404;12.148;2022-07-23T16:22:36;33.20;79.10
22878;DHT22;11606;45.404;12.148;2022-07-23T16:25:06;33.30;76.90
22878;DHT22;11606;45.404;12.148;2022-07-23T16:27:34;33.20;77.20
22878;DHT22;11606;45.404;12.148;2022-07-23T16:30:00;33.20;81.80
22878;DHT22;11606;45.404;12.148;2022-07-23T16:32:26;33.10;88.10
22878;DHT22;11606;45.404;12.148;2022-07-23T16:34:52;33.10;89.70
22878;DHT22;11606;45.404;12.148;2022-07-23T16:37:18;33.00;90.90
22878;DHT22;11606;45.404;12.148;2022-07-23T16:39:44;32.90;90.80
22878;DHT22;11606;45.404;12.148;2022-07-23T16:42:10;32.70;90.50
22878;DHT22;11606;45.404;12.148;2022-07-23T16:44:36;32.60;91.50
22878;DHT22;11606;45.404;12.148;2022-07-23T16:47:02;32.60;92.30
22878;DHT22;11606;45.404;12.148;2022-07-23T16:49:28;32.50;92.80
22878;DHT22;11606;45.404;12.148;2022-07-23T16:51:54;32.40;93.20
22878;DHT22;11606;45.404;12.148;2022-07-23T16:54:21;32.30;93.30
22878;DHT22;11606;45.404;12.148;2022-07-23T16:56:46;32.30;93.40
22878;DHT22;11606;45.404;12.148;2022-07-23T16:59:13;32.30;93.40
22878;DHT22;11606;45.404;12.148;2022-07-23T17:01:38;32.10;94.60
22878;DHT22;11606;45.404;12.148;2022-07-23T17:04:04;32.00;95.80
22878;DHT22;11606;45.404;12.148;2022-07-23T17:06:32;31.90;96.50
22878;DHT22;11606;45.404;12.148;2022-07-23T17:08:59;31.90;97.50
22878;DHT22;11606;45.404;12.148;2022-07-23T17:11:25;31.80;98.10
22878;DHT22;11606;45.404;12.148;2022-07-23T17:13:51;31.70;98.60
22878;DHT22;11606;45.404;12.148;2022-07-23T17:16:17;31.70;98.90
22878;DHT22;11606;45.404;12.148;2022-07-23T17:18:43;31.70;98.90
22878;DHT22;11606;45.404;12.148;2022-07-23T17:21:09;31.60;98.60
22878;DHT22;11606;45.404;12.148;2022-07-23T17:23:35;31.70;98.20
22878;DHT22;11606;45.404;12.148;2022-07-23T17:26:01;31.70;98.30
22878;DHT22;11606;45.404;12.148;2022-07-23T17:28:28;31.80;98.40
22878;DHT22;11606;45.404;12.148;2022-07-23T17:30:54;31.70;98.90
22878;DHT22;11606;45.404;12.148;2022-07-23T17:33:20;31.70;99.50
22878;DHT22;11606;45.404;12.148;2022-07-23T17:35:46;31.70;99.90
22878;DHT22;11606;45.404;12.148;2022-07-23T17:38:14;31.70;99.90
22878;DHT22;11606;45.404;12.148;2022-07-23T17:40:41;31.60;99.70
22878;DHT22;11606;45.404;12.148;2022-07-23T17:43:06;31.50;99.90
22878;DHT22;11606;45.404;12.148;2022-07-23T17:45:32;31.40;99.90
22878;DHT22;11606;45.404;12.148;2022-07-23T17:47:58;31.50;99.90
22878;DHT22;11606;45.404;12.148;2022-07-23T17:50:24;31.50;99.90
22878;DHT22;11606;45.404;12.148;2022-07-23T17:52:53;31.50;99.90
22878;DHT22;11606;45.404;12.148;2022-07-23T17:55:20;31.40;99.90
22878;DHT22;11606;45.404;12.148;2022-07-23T17:57:47;31.40;99.90
22878;DHT22;11606;45.404;12.148;2022-07-23T18:00:15;31.30;99.90
22878;DHT22;11606;45.404;12.148;2022-07-23T18:02:42;31.30;99.90
22878;DHT22;11606;45.404;12.148;2022-07-23T18:05:09;31.30;99.90
22878;DHT22;11606;45.404;12.148;2022-07-23T18:07:36;31.30;99.90
22878;DHT22;11606;45.404;12.148;2022-07-23T18:10:02;31.40;99.90
22878;DHT22;11606;45.404;12.148;2022-07-23T18:12:28;31.30;99.90
22878;DHT22;11606;45.404;12.148;2022-07-23T18:14:54;31.30;99.90
22878;DHT22;11606;45.404;12.148;2022-07-23T18:17:20;31.30;99.90
22878;DHT22;11606;45.404;12.148;2022-07-23T18:19:46;31.30;99.90
22878;DHT22;11606;45.404;12.148;2022-07-23T18:22:12;31.30;99.90
22878;DHT22;11606;45.404;12.148;2022-07-23T18:24:38;31.30;99.90
22878;DHT22;11606;45.404;12.148;2022-07-23T18:27:05;31.20;99.90
22878;DHT22;11606;45.404;12.148;2022-07-23T18:29:31;31.20;99.90
22878;DHT22;11606;45.404;12.148;2022-07-23T18:31:57;31.30;99.90
22878;DHT22;11606;45.404;12.148;2022-07-23T18:34:23;31.20;99.90
22878;DHT22;11606;45.404;12.148;2022-07-23T18:36:48;31.20;99.90
22878;DHT22;11606;45.404;12.148;2022-07-23T18:39:14;31.20;99.90
22878;DHT22;11606;45.404;12.148;2022-07-23T18:41:41;31.10;99.90
22878;DHT22;11606;45.404;12.148;2022-07-23T18:44:07;31.10;99.90
22878;DHT22;11606;45.404;12.148;2022-07-23T18:46:33;31.00;99.90
22878;DHT22;11606;45.404;12.148;2022-07-23T18:48:58;31.00;99.90
22878;DHT22;11606;45.404;12.148;2022-07-23T18:51:24;31.10;99.90
22878;DHT22;11606;45.404;12.148;2022-07-23T18:53:52;31.10;99.90
22878;DHT22;11606;45.404;12.148;2022-07-23T18:56:18;31.10;99.90
22878;DHT22;11606;45.404;12.148;2022-07-23T18:58:44;31.10;99.90
22878;DHT22;11606;45.404;12.148;2022-07-23T19:01:10;31.20;99.90
22878;DHT22;11606;45.404;12.148;2022-07-23T19:03:37;31.10;99.90
22878;DHT22;11606;45.404;12.148;2022-07-23T19:06:03;31.10;99.90
22878;DHT22;11606;45.404;12.148;2022-07-23T19:08:29;31.10;99.90
22878;DHT22;11606;45.404;12.148;2022-07-23T19:10:56;31.00;99.90
22878;DHT22;11606;45.404;12.148;2022-07-23T19:13:22;31.00;99.90
22878;DHT22;11606;45.404;12.148;2022-07-23T19:15:49;31.00;99.90
22878;DHT22;11606;45.404;12.148;2022-07-23T19:18:15;31.00;99.90
22878;DHT22;11606;45.404;12.148;2022-07-23T19:20:41;31.00;99.90
22878;DHT22;11606;45.404;12.148;2022-07-23T19:23:07;31.00;99.90
22878;DHT22;11606;45.404;12.148;2022-07-23T19:25:33;31.00;99.90
22878;DHT22;11606;45.404;12.148;2022-07-23T19:27:59;30.90;99.90
22878;DHT22;11606;45.404;12.148;2022-07-23T19:30:25;30.80;99.90
22878;DHT22;11606;45.404;12.148;2022-07-23T19:32:50;30.80;99.90
22878;DHT22;11606;45.404;12.148;2022-07-23T19:35:17;30.80;99.90
22878;DHT22;11606;45.404;12.148;2022-07-23T19:37:42;30.90;99.90
22878;DHT22;11606;45.404;12.148;2022-07-23T19:40:09;30.90;99.90
22878;DHT22;11606;45.404;12.148;2022-07-23T19:42:35;30.90;99.90
22878;DHT22;11606;45.404;12.148;2022-07-23T19:45:02;30.90;99.90
22878;DHT22;11606;45.404;12.148;2022-07-23T19:47:28;31.00;99.90
22878;DHT22;11606;45.404;12.148;2022-07-23T19:49:54;31.00;99.90
22878;DHT22;11606;45.404;12.148;2022-07-23T19:52:20;31.00;99.90
22878;DHT22;11606;45.404;12.148;2022-07-23T19:54:46;31.00;99.90
22878;DHT22;11606;45.404;12.148;2022-07-23T19:57:12;30.90;99.90
22878;DHT22;11606;45.404;12.148;2022-07-23T19:59:38;30.90;99.90
22878;DHT22;11606;45.404;12.148;2022-07-23T20:02:03;31.00;99.90
22878;DHT22;11606;45.404;12.148;2022-07-23T20:04:30;30.90;99.90
22878;DHT22;11606;45.404;12.148;2022-07-23T20:06:55;30.80;99.90
22878;DHT22;11606;45.404;12.148;2022-07-23T20:09:23;30.80;99.90
22878;DHT22;11606;45.404;12.148;2022-07-23T20:11:50;30.80;99.90
22878;DHT22;11606;45.404;12.148;2022-07-23T20:14:16;30.70;99.90
22878;DHT22;11606;45.404;12.148;2022-07-23T20:16:42;30.70;99.90
22878;DHT22;11606;45.404;12.148;2022-07-23T20:19:09;30.70;99.90
22878;DHT22;11606;45.404;12.148;2022-07-23T20:21:35;30.60;99.90
22878;DHT22;11606;45.404;12.148;2022-07-23T20:24:00;30.60;99.90
22878;DHT22;11606;45.404;12.148;2022-07-23T20:26:30;30.70;99.90
22878;DHT22;11606;45.404;12.148;2022-07-23T20:28:56;30.60;99.90
22878;DHT22;11606;45.404;12.148;2022-07-23T20:31:22;30.60;99.90
22878;DHT22;11606;45.404;12.148;2022-07-23T20:33:48;30.60;99.90
22878;DHT22;11606;45.404;12.148;2022-07-23T20:36:14;30.50;99.90
22878;DHT22;11606;45.404;12.148;2022-07-23T20:38:39;30.40;99.90
22878;DHT22;11606;45.404;12.148;2022-07-23T20:41:05;30.30;99.90
22878;DHT22;11606;45.404;12.148;2022-07-23T20:43:31;30.20;99.90
22878;DHT22;11606;45.404;12.148;2022-07-23T20:45:57;30.10;99.90
22878;DHT22;11606;45.404;12.148;2022-07-23T20:48:23;30.00;99.90
22878;DHT22;11606;45.404;12.148;2022-07-23T20:50:49;30.00;99.90
22878;DHT22;11606;45.404;12.148;2022-07-23T20:53:15;30.00;99.90
22878;DHT22;11606;45.404;12.148;2022-07-23T20:55:40;30.00;99.90
22878;DHT22;11606;45.404;12.148;2022-07-23T20:58:08;30.00;99.90
22878;DHT22;11606;45.404;12.148;2022-07-23T21:00:34;29.90;99.90
22878;DHT22;11606;45.404;12.148;2022-07-23T21:03:00;29.90;99.90
22878;DHT22;11606;45.404;12.148;2022-07-23T21:05:25;29.90;99.90
22878;DHT22;11606;45.404;12.148;2022-07-23T21:07:51;29.80;99.90
22878;DHT22;11606;45.404;12.148;2022-07-23T21:10:17;29.80;99.90
22878;DHT22;11606;45.404;12.148;2022-07-23T21:12:43;29.80;99.90
22878;DHT22;11606;45.404;12.148;2022-07-23T21:15:09;29.80;99.90
22878;DHT22;11606;45.404;12.148;2022-07-23T21:17:36;29.80;99.90
22878;DHT22;11606;45.404;12.148;2022-07-23T21:20:03;29.80;99.90
22878;DHT22;11606;45.404;12.148;2022-07-23T21:22:30;29.80;99.90
22878;DHT22;11606;45.404;12.148;2022-07-23T21:24:55;29.80;99.90
22878;DHT22;11606;45.404;12.148;2022-07-23T21:27:21;29.70;99.90
22878;DHT22;11606;45.404;12.148;2022-07-23T21:29:47;29.70;99.90
22878;DHT22;11606;45.404;12.148;2022-07-23T21:32:13;29.70;99.90
22878;DHT22;11606;45.404;12.148;2022-07-23T21:34:38;29.70;99.90
22878;DHT22;11606;45.404;12.148;2022-07-23T21:37:04;29.70;99.90
22878;DHT22;11606;45.404;12.148;2022-07-23T21:39:30;29.70;99.90
22878;DHT22;11606;45.404;12.148;2022-07-23T21:41:56;29.70;99.90
22878;DHT22;11606;45.404;12.148;2022-07-23T21:44:22;29.80;99.90
22878;DHT22;11606;45.404;12.148;2022-07-23T21:46:48;29.80;99.90
22878;DHT22;11606;45.404;12.148;2022-07-23T21:49:14;29.80;99.90
22878;DHT22;11606;45.404;12.148;2022-07-23T21:51:40;29.80;99.90
22878;DHT22;11606;45.404;12.148;2022-07-23T21:54:10;29.80;99.90
22878;DHT22;11606;45.404;12.148;2022-07-23T21:56:35;29.90;99.90
22878;DHT22;11606;45.404;12.148;2022-07-23T21:59:01;29.90;99.90
22878;DHT22;11606;45.404;12.148;2022-07-23T22:01:28;29.90;99.90
22878;DHT22;11606;45.404;12.148;2022-07-23T22:03:53;29.90;99.90
22878;DHT22;11606;45.404;12.148;2022-07-23T22:06:19;29.90;99.90
22878;DHT22;11606;45.404;12.148;2022-07-23T22:08:45;29.90;99.90
22878;DHT22;11606;45.404;12.148;2022-07-23T22:11:11;29.80;99.90
22878;DHT22;11606;45.404;12.148;2022-07-23T22:13:36;29.80;99.90
22878;DHT22;11606;45.404;12.148;2022-07-23T22:16:02;29.80;99.90
22878;DHT22;11606;45.404;12.148;2022-07-23T22:18:28;29.80;99.90